Cord, Arkansas
Current Conditions -  °F | °C
As of 5:15 PM on Thursday 27 Nov 2014 (Local Time) from KM19 Reporting Station
Light Rain Light Rain  
Wind Chill: 40°   Ceiling: Unl
Heat Index: 43°   Visibility: 0mi
Dew Point: 30°   Wind: 5mph
Humidity: 61%   Direction: 140°SE
Pressure: 30.48"   Gusts: NA
Location:  35.81°N, 91.34°W
Report Text: KM19 272315Z AUTO 14004KT M1/4SM -RA CLR 06/M01 A3048 RMK AO2 RAB2257 P0000
Loading
Personal Weather Stations






























Interactive Weather Map New forecast layout! Learn more

10-Day Weather Forecast

Advertisements
Track Severe Weather on mobile